Time;durP1;ratioP1;P1;durP2;ratioP2;P2;SDS_P1;SDS_P2;PMS_P1;PMS_P2;Temp;Humidity;BMP_temperature;BMP_pressure;BME280_temperature;BME280_humidity;BME280_pressure;Samples;Min_cycle;Max_cycle;Signal;HPM_P1;HPM_P2
2021/05/04 00:01:49;;;;;;;3.13;2.93;;;16.70;37.50;;;;;;5048974;28;20185;-44
2021/05/04 00:04:14;;;;;;;4.73;3.50;;;16.80;37.80;;;;;;5045928;28;20198;-45
2021/05/04 00:06:40;;;;;;;3.20;3.00;;;16.70;37.80;;;;;;5046217;28;20197;-44
2021/05/04 00:09:06;;;;;;;3.23;2.97;;;16.50;37.40;;;;;;5045945;28;20192;-43
2021/05/04 00:11:32;;;;;;;2.80;2.60;;;16.40;38.40;;;;;;5041766;28;20486;-45
2021/05/04 00:13:58;;;;;;;3.63;3.33;;;16.30;38.80;;;;;;5042092;28;20279;-47
2021/05/04 00:16:24;;;;;;;3.50;3.30;;;16.10;38.00;;;;;;5045918;28;20514;-45
2021/05/04 00:18:49;;;;;;;3.17;2.87;;;16.10;38.30;;;;;;5047239;28;20189;-44
2021/05/04 00:21:15;;;;;;;3.10;2.90;;;16.00;38.60;;;;;;5049170;28;20234;-43
2021/05/04 00:23:40;;;;;;;3.27;3.07;;;16.10;39.30;;;;;;5044295;28;20685;-44
2021/05/04 00:26:08;;;;;;;3.33;3.03;;;16.30;39.30;;;;;;5048046;28;20193;-45
2021/05/04 00:28:34;;;;;;;4.10;3.13;;;16.40;38.10;;;;;;5047026;28;20228;-48
2021/05/04 00:30:59;;;;;;;4.70;3.00;;;16.00;37.90;;;;;;5040876;28;20959;-43
2021/05/04 00:33:25;;;;;;;2.93;2.63;;;16.00;39.10;;;;;;5043232;28;20982;-44
2021/05/04 00:35:51;;;;;;;3.80;3.17;;;16.10;39.00;;;;;;5045719;28;20467;-46
2021/05/04 00:38:17;;;;;;;4.20;3.47;;;16.20;38.80;;;;;;5045349;28;20189;-44
2021/05/04 00:40:42;;;;;;;3.33;3.03;;;16.30;38.40;;;;;;5045938;28;21020;-43
2021/05/04 00:43:09;;;;;;;3.57;3.27;;;16.40;39.00;;;;;;5044505;28;20235;-44
2021/05/04 00:45:34;;;;;;;3.83;3.30;;;16.40;37.40;;;;;;5036558;28;20906;-44
2021/05/04 00:48:00;;;;;;;3.03;2.77;;;16.00;38.20;;;;;;5043834;28;20264;-44
2021/05/04 00:50:26;;;;;;;4.73;3.30;;;16.10;38.40;;;;;;5042880;28;20555;-43
2021/05/04 00:52:52;;;;;;;3.43;3.20;;;16.10;38.80;;;;;;5042563;28;20327;-44
2021/05/04 00:55:18;;;;;;;3.80;3.10;;;16.20;39.30;;;;;;5043191;28;20672;-46
2021/05/04 00:57:45;;;;;;;2.80;2.60;;;16.20;38.30;;;;;;5045028;28;20431;-46
2021/05/04 01:00:12;;;;;;;3.30;3.00;;;16.30;39.10;;;;;;5040139;28;20455;-43
2021/05/04 01:02:40;;;;;;;3.50;3.20;;;16.40;38.40;;;;;;5040228;28;20450;-46
2021/05/04 01:05:09;;;;;;;4.87;3.17;;;16.50;38.60;;;;;;5040667;28;20439;-43
2021/05/04 01:07:34;;;;;;;3.60;3.00;;;16.50;38.70;;;;;;5043925;28;20450;-43
2021/05/04 01:10:00;;;;;;;3.17;2.90;;;16.50;37.60;;;;;;5044656;28;20451;-43
2021/05/04 01:12:26;;;;;;;3.33;3.10;;;16.50;38.30;;;;;;5040181;28;20589;-47
2021/05/04 01:14:51;;;;;;;3.50;3.30;;;16.40;38.50;;;;;;5041217;28;20203;-44
2021/05/04 01:17:17;;;;;;;3.40;3.07;;;16.40;38.00;;;;;;5038358;28;20263;-44
2021/05/04 01:19:43;;;;;;;3.90;3.43;;;16.50;38.40;;;;;;5044094;28;20644;-43
2021/05/04 01:22:08;;;;;;;3.70;3.40;;;16.60;37.70;;;;;;5034965;28;20192;-44
2021/05/04 01:24:34;;;;;;;3.70;3.40;;;16.60;37.90;;;;;;5039563;28;20259;-44
2021/05/04 01:27:00;;;;;;;3.93;3.33;;;16.70;37.50;;;;;;5045519;28;20192;-46
2021/05/04 01:29:27;;;;;;;4.30;3.90;;;16.70;37.40;;;;;;5048010;28;20525;-47
2021/05/04 01:31:53;;;;;;;4.50;4.10;;;16.60;36.80;;;;;;5041701;28;20241;-44
2021/05/04 01:34:20;;;;;;;3.43;3.13;;;16.40;36.60;;;;;;5047241;28;20477;-44
2021/05/04 01:36:46;;;;;;;3.70;3.40;;;16.10;36.80;;;;;;5043186;28;20522;-45
2021/05/04 01:39:12;;;;;;;4.90;4.20;;;15.40;37.20;;;;;;5041966;28;20460;-45
2021/05/04 01:41:38;;;;;;;3.50;3.20;;;15.10;38.10;;;;;;5041089;28;21010;-47
2021/05/04 01:44:08;;;;;;;3.90;3.53;;;15.00;38.90;;;;;;5041673;28;20471;-45
2021/05/04 01:46:34;;;;;;;3.93;3.53;;;15.00;39.20;;;;;;5042284;28;20962;-44
2021/05/04 01:49:01;;;;;;;3.87;3.47;;;14.70;39.30;;;;;;5050180;28;20489;-46
2021/05/04 01:51:28;;;;;;;7.53;3.83;;;14.40;39.80;;;;;;5044339;28;20470;-44
2021/05/04 01:53:58;;;;;;;4.63;4.00;;;14.30;40.20;;;;;;5042203;28;20427;-44
2021/05/04 01:56:24;;;;;;;3.57;3.27;;;14.20;40.60;;;;;;5046962;28;20470;-47
2021/05/04 01:58:50;;;;;;;3.20;2.90;;;13.90;40.80;;;;;;5050168;28;20433;-45
2021/05/04 02:01:16;;;;;;;4.40;3.80;;;13.50;41.20;;;;;;5042953;28;20452;-44
2021/05/04 02:03:42;;;;;;;3.27;3.07;;;13.20;42.20;;;;;;5042647;28;20922;-44
2021/05/04 02:06:08;;;;;;;3.93;3.53;;;12.80;43.10;;;;;;5050103;28;20469;-45
2021/05/04 02:08:34;;;;;;;4.47;4.07;;;12.40;43.80;;;;;;5047795;28;20451;-44
2021/05/04 02:10:59;;;;;;;4.20;3.80;;;12.40;44.50;;;;;;5046312;28;20201;-45
2021/05/04 02:13:25;;;;;;;4.90;3.80;;;12.20;44.80;;;;;;5047729;28;20246;-46
2021/05/04 02:15:51;;;;;;;4.73;4.30;;;12.00;45.30;;;;;;5044463;28;20687;-47
2021/05/04 02:18:17;;;;;;;5.53;3.87;;;12.00;45.00;;;;;;5043298;28;20657;-44
2021/05/04 02:20:43;;;;;;;3.87;3.57;;;12.30;44.80;;;;;;5046819;28;20508;-44
2021/05/04 02:23:09;;;;;;;4.27;3.40;;;12.30;45.40;;;;;;5048931;28;20938;-44
2021/05/04 02:25:35;;;;;;;5.07;4.43;;;12.30;45.70;;;;;;5044777;28;20280;-44
2021/05/04 02:28:03;;;;;;;6.27;4.03;;;12.30;45.40;;;;;;5047625;28;20881;-44
2021/05/04 02:30:32;;;;;;;4.03;3.73;;;12.30;44.90;;;;;;5045978;28;20196;-44
2021/05/04 02:32:58;;;;;;;5.57;3.50;;;12.50;44.40;;;;;;5044738;28;20491;-44
2021/05/04 02:35:24;;;;;;;3.80;3.40;;;12.60;44.00;;;;;;5045731;28;20843;-44
2021/05/04 02:37:49;;;;;;;4.10;3.70;;;12.70;43.50;;;;;;5040461;28;20195;-44
2021/05/04 02:40:15;;;;;;;4.90;3.50;;;12.90;43.40;;;;;;5048535;28;20258;-44
2021/05/04 02:42:41;;;;;;;4.27;3.87;;;13.10;43.00;;;;;;5044196;28;20192;-47
2021/05/04 02:45:07;;;;;;;3.57;3.27;;;13.20;42.70;;;;;;5031697;28;20200;-45
2021/05/04 02:47:32;;;;;;;3.73;3.43;;;13.30;42.50;;;;;;5048818;28;20212;-44
2021/05/04 02:49:58;;;;;;;6.20;3.77;;;13.30;42.40;;;;;;5051712;28;20435;-44
2021/05/04 02:52:23;;;;;;;3.70;3.40;;;13.40;42.30;;;;;;5041174;28;20307;-44
2021/05/04 02:54:49;;;;;;;3.63;3.30;;;13.40;42.30;;;;;;5052913;28;20648;-45
2021/05/04 02:57:16;;;;;;;3.63;3.33;;;13.30;42.50;;;;;;5041942;28;20237;-45
2021/05/04 02:59:42;;;;;;;3.57;3.10;;;13.40;42.40;;;;;;5048774;28;20193;-45
2021/05/04 03:02:07;;;;;;;4.30;3.40;;;13.40;42.20;;;;;;5046668;28;20808;-45
2021/05/04 03:04:33;;;;;;;3.40;3.10;;;13.50;42.30;;;;;;5051411;28;20216;-45
2021/05/04 03:06:59;;;;;;;3.00;2.70;;;13.60;41.90;;;;;;5050186;28;20204;-45
2021/05/04 03:09:24;;;;;;;3.57;3.27;;;13.70;42.20;;;;;;5044296;28;20200;-50
2021/05/04 03:11:50;;;;;;;3.03;2.83;;;13.80;41.50;;;;;;5045454;28;20608;-45
2021/05/04 03:14:15;;;;;;;3.40;3.10;;;13.90;41.20;;;;;;5047936;28;20226;-44
2021/05/04 03:16:41;;;;;;;3.67;2.67;;;13.80;41.20;;;;;;5052014;28;20436;-45
2021/05/04 03:19:07;;;;;;;4.00;3.43;;;13.60;41.60;;;;;;5045444;28;20200;-46
2021/05/04 03:21:32;;;;;;;3.23;2.90;;;13.70;41.70;;;;;;5039152;28;20686;-44
2021/05/04 03:23:58;;;;;;;3.00;2.70;;;13.80;41.50;;;;;;5049758;28;20190;-48
2021/05/04 03:26:23;;;;;;;2.77;2.57;;;13.80;41.80;;;;;;5049906;28;20204;-48
2021/05/04 03:28:49;;;;;;;4.90;3.10;;;13.70;41.70;;;;;;5047912;28;20189;-44
2021/05/04 03:31:14;;;;;;;3.23;2.97;;;13.80;41.40;;;;;;5047989;28;20651;-44
2021/05/04 03:33:40;;;;;;;2.90;2.70;;;13.80;41.50;;;;;;5046383;28;20296;-48
2021/05/04 03:36:06;;;;;;;2.90;2.70;;;13.80;42.00;;;;;;5045966;28;20750;-45
2021/05/04 03:38:32;;;;;;;6.53;3.23;;;13.60;41.90;;;;;;5043615;28;20215;-47
2021/05/04 03:40:58;;;;;;;6.10;3.63;;;13.60;42.50;;;;;;5044512;28;20250;-44
2021/05/04 03:43:24;;;;;;;3.40;3.00;;;13.60;42.80;;;;;;5039947;28;20947;-45
2021/05/04 03:45:49;;;;;;;5.33;3.20;;;13.40;42.80;;;;;;5044407;28;20200;-45
2021/05/04 03:48:15;;;;;;;3.97;2.70;;;13.20;42.80;;;;;;5051212;28;20235;-46
2021/05/04 03:50:41;;;;;;;4.23;3.37;;;13.00;43.40;;;;;;5044722;28;20250;-45
2021/05/04 03:53:07;;;;;;;4.17;3.40;;;13.20;43.50;;;;;;5039406;28;20329;-44
2021/05/04 03:55:33;;;;;;;3.13;2.83;;;13.30;43.20;;;;;;5050269;28;20854;-44
2021/05/04 03:57:59;;;;;;;4.30;2.97;;;13.50;43.10;;;;;;5049117;28;20439;-45
2021/05/04 04:00:25;;;;;;;4.00;3.13;;;13.50;43.00;;;;;;5043401;28;20208;-45
2021/05/04 04:02:52;;;;;;;3.27;2.97;;;13.20;43.10;;;;;;5043460;28;20442;-48
2021/05/04 04:05:18;;;;;;;2.83;2.63;;;12.90;44.00;;;;;;5044895;28;20181;-44
2021/05/04 04:07:44;;;;;;;3.20;2.90;;;12.90;44.10;;;;;;5040942;28;20435;-44
2021/05/04 04:10:11;;;;;;;3.73;3.03;;;12.70;44.30;;;;;;5042797;28;20608;-44
2021/05/04 04:12:37;;;;;;;3.43;2.93;;;12.60;44.70;;;;;;5043108;28;20228;-44
2021/05/04 04:15:03;;;;;;;3.07;2.80;;;12.60;45.10;;;;;;5048715;28;20438;-45
2021/05/04 04:17:29;;;;;;;4.70;3.00;;;12.70;44.90;;;;;;5042838;28;20235;-44
2021/05/04 04:19:54;;;;;;;3.57;3.27;;;12.70;44.60;;;;;;5047756;28;20521;-45
2021/05/04 04:22:20;;;;;;;3.17;2.97;;;12.70;44.80;;;;;;5041388;28;20189;-44
2021/05/04 04:24:46;;;;;;;4.43;3.10;;;12.80;44.50;;;;;;5049780;28;20680;-46
2021/05/04 04:27:11;;;;;;;3.60;3.30;;;12.70;44.90;;;;;;5049513;28;20199;-44
2021/05/04 04:29:38;;;;;;;3.50;3.13;;;12.70;44.90;;;;;;5045807;28;20188;-46
2021/05/04 04:32:04;;;;;;;3.43;3.10;;;12.70;44.80;;;;;;5048695;28;21932;-44
2021/05/04 04:34:30;;;;;;;3.03;2.83;;;12.80;44.60;;;;;;5042359;28;20440;-44
2021/05/04 04:36:56;;;;;;;6.57;3.30;;;12.80;44.30;;;;;;5041982;28;20600;-45
2021/05/04 04:39:22;;;;;;;3.13;2.80;;;13.00;44.20;;;;;;5044864;28;20189;-49
2021/05/04 04:41:48;;;;;;;3.80;3.40;;;13.00;43.90;;;;;;5040344;28;20196;-44
2021/05/04 04:44:13;;;;;;;3.07;2.80;;;13.10;43.90;;;;;;5048662;28;20450;-44
2021/05/04 04:46:43;;;;;;;5.00;3.40;;;13.00;43.90;;;;;;5044665;28;20220;-45
2021/05/04 04:49:19;;;;;;;3.90;3.60;;;12.70;44.60;;;;;;5048912;28;20228;-44
2021/05/04 04:51:46;;;;;;;3.90;3.57;;;12.60;45.00;;;;;;5045999;28;20529;-44
2021/05/04 04:54:12;;;;;;;2.90;2.67;;;12.60;44.90;;;;;;5045220;28;20469;-44
2021/05/04 04:56:38;;;;;;;3.07;2.80;;;12.80;44.70;;;;;;5041782;28;20520;-46
2021/05/04 04:59:05;;;;;;;3.23;3.03;;;12.70;44.60;;;;;;5044870;28;20943;-44
2021/05/04 05:01:31;;;;;;;3.40;2.90;;;12.60;44.70;;;;;;5043735;28;20447;-47
2021/05/04 05:03:57;;;;;;;4.43;3.23;;;12.70;44.60;;;;;;5045741;28;20451;-46
2021/05/04 05:06:23;;;;;;;2.73;2.53;;;12.20;45.00;;;;;;5042973;28;20436;-43
2021/05/04 05:08:51;;;;;;;4.00;3.27;;;12.20;45.70;;;;;;5042813;28;20188;-46
2021/05/04 05:11:18;;;;;;;5.20;2.90;;;12.50;46.00;;;;;;5040697;28;20232;-43
2021/05/04 05:13:45;;;;;;;3.73;3.40;;;12.70;50.60;;;;;;5045244;28;20531;-44
2021/05/04 05:16:12;;;;;;;8.20;3.20;;;13.10;49.40;;;;;;5048770;28;20447;-44
2021/05/04 05:18:38;;;;;;;4.17;3.77;;;13.50;46.60;;;;;;5047045;28;20501;-43
2021/05/04 05:21:04;;;;;;;3.70;3.40;;;13.70;44.00;;;;;;5040538;28;21007;-43
2021/05/04 05:23:29;;;;;;;3.17;2.90;;;13.80;44.20;;;;;;5046730;28;20322;-44
2021/05/04 05:25:57;;;;;;;2.90;2.70;;;13.90;43.50;;;;;;5050242;28;20466;-45
2021/05/04 05:28:23;;;;;;;3.53;3.23;;;14.10;43.50;;;;;;5046164;28;20222;-43
2021/05/04 05:30:48;;;;;;;3.30;2.53;;;14.30;42.80;;;;;;5042954;28;20457;-44
2021/05/04 05:33:14;;;;;;;4.60;2.57;;;14.10;42.50;;;;;;5048135;28;20266;-43
2021/05/04 05:35:40;;;;;;;2.37;2.17;;;14.20;42.10;;;;;;5037751;28;20760;-44
2021/05/04 05:38:05;;;;;;;3.93;3.00;;;14.20;42.20;;;;;;5045956;28;20199;-43
2021/05/04 05:40:32;;;;;;;2.60;2.40;;;14.30;42.40;;;;;;5041486;28;20220;-45
2021/05/04 05:42:58;;;;;;;3.73;3.00;;;14.30;41.80;;;;;;5046541;28;20242;-44
2021/05/04 05:45:24;;;;;;;3.63;2.37;;;14.40;41.80;;;;;;5036821;28;20428;-43
2021/05/04 05:47:49;;;;;;;2.97;2.20;;;14.60;41.50;;;;;;5040192;28;20434;-43
2021/05/04 05:50:16;;;;;;;3.17;2.30;;;14.60;41.50;;;;;;5049512;28;20279;-43
2021/05/04 05:52:41;;;;;;;4.33;2.33;;;14.50;41.20;;;;;;5049968;28;20228;-43
2021/05/04 05:55:07;;;;;;;2.23;1.93;;;14.40;41.50;;;;;;5044777;28;20427;-43
2021/05/04 05:57:33;;;;;;;3.80;2.87;;;14.30;41.50;;;;;;5031024;28;20203;-43
2021/05/04 05:59:58;;;;;;;3.13;2.30;;;14.30;41.60;;;;;;5048230;28;20521;-44
2021/05/04 06:02:24;;;;;;;3.27;3.07;;;14.40;41.60;;;;;;5047101;28;20199;-43
2021/05/04 06:04:51;;;;;;;2.60;2.40;;;14.60;42.10;;;;;;5042733;28;20196;-43
2021/05/04 06:07:18;;;;;;;2.37;2.17;;;14.60;41.30;;;;;;5043286;28;20258;-43
2021/05/04 06:09:43;;;;;;;2.40;2.20;;;14.70;41.20;;;;;;5048236;28;20837;-43
2021/05/04 06:12:09;;;;;;;3.67;3.37;;;14.80;41.20;;;;;;5042784;28;20488;-44
2021/05/04 06:14:35;;;;;;;6.30;2.40;;;14.80;41.00;;;;;;5045053;28;20526;-43
2021/05/04 06:17:00;;;;;;;2.57;2.37;;;14.80;41.30;;;;;;5050886;28;20192;-43
2021/05/04 06:19:26;;;;;;;2.40;2.20;;;14.90;40.90;;;;;;5049266;28;20664;-43
2021/05/04 06:21:51;;;;;;;3.00;2.70;;;15.00;40.80;;;;;;5051023;28;20219;-43
2021/05/04 06:24:17;;;;;;;7.03;2.53;;;14.90;41.00;;;;;;5053433;28;20219;-43
2021/05/04 06:26:43;;;;;;;2.30;2.10;;;15.00;40.60;;;;;;5052268;28;21015;-44
2021/05/04 06:29:08;;;;;;;2.67;2.47;;;15.10;40.80;;;;;;5048690;28;20193;-43
2021/05/04 06:31:35;;;;;;;2.50;2.20;;;15.30;40.50;;;;;;5039251;28;21898;-43
2021/05/04 06:34:03;;;;;;;3.10;2.87;;;15.40;40.00;;;;;;5049768;28;20199;-44
2021/05/04 06:36:28;;;;;;;2.90;2.50;;;15.40;40.20;;;;;;5050603;28;21096;-48
2021/05/04 06:38:54;;;;;;;2.60;2.40;;;15.60;40.20;;;;;;5049212;28;20437;-43
2021/05/04 06:41:19;;;;;;;3.07;2.80;;;15.50;39.40;;;;;;5046953;28;20228;-44
2021/05/04 06:43:45;;;;;;;2.40;2.20;;;15.60;40.00;;;;;;5051650;28;20632;-43
2021/05/04 06:46:11;;;;;;;4.10;2.47;;;15.60;39.90;;;;;;5049606;28;20194;-44
2021/05/04 06:48:37;;;;;;;2.40;2.20;;;15.80;39.80;;;;;;5047048;28;20209;-43
2021/05/04 06:51:03;;;;;;;2.80;2.30;;;15.90;39.60;;;;;;5048434;28;20474;-43
2021/05/04 06:53:28;;;;;;;2.40;2.20;;;15.80;39.30;;;;;;5043822;28;20228;-44
2021/05/04 06:55:54;;;;;;;2.43;2.20;;;15.70;39.60;;;;;;5050025;28;20247;-44
2021/05/04 06:58:20;;;;;;;2.70;2.50;;;15.80;39.90;;;;;;5038300;28;20191;-48
2021/05/04 07:00:46;;;;;;;2.73;2.40;;;15.80;39.60;;;;;;5039755;28;20459;-45
2021/05/04 07:03:11;;;;;;;2.77;2.13;;;16.00;39.50;;;;;;5041232;28;20192;-43
2021/05/04 07:05:37;;;;;;;2.70;2.50;;;16.10;39.30;;;;;;5046574;28;20192;-43
2021/05/04 07:08:03;;;;;;;2.30;2.10;;;16.00;39.50;;;;;;5050462;28;20189;-44
2021/05/04 07:10:29;;;;;;;2.30;2.00;;;16.20;39.40;;;;;;5046762;28;20465;-47
2021/05/04 07:12:56;;;;;;;2.30;2.10;;;16.30;39.30;;;;;;5049150;28;20595;-46
2021/05/04 07:15:21;;;;;;;2.13;1.93;;;16.30;38.70;;;;;;5047213;28;20189;-44
2021/05/04 07:17:47;;;;;;;2.70;1.67;;;16.30;38.60;;;;;;5045555;28;20431;-46
2021/05/04 07:20:18;;;;;;;2.70;2.50;;;16.40;38.50;;;;;;5053231;28;20192;-44
2021/05/04 07:22:44;;;;;;;3.10;2.40;;;16.50;38.60;;;;;;5038368;28;20185;-45
2021/05/04 07:25:10;;;;;;;5.53;2.07;;;16.60;38.10;;;;;;5048413;28;20423;-46
2021/05/04 07:27:36;;;;;;;2.50;1.90;;;16.50;37.90;;;;;;5044698;28;20193;-45
2021/05/04 07:30:02;;;;;;;7.30;2.33;;;16.70;38.10;;;;;;5038430;28;20454;-45
2021/05/04 07:32:27;;;;;;;2.27;2.00;;;16.80;37.60;;;;;;5042122;28;20228;-46
2021/05/04 07:34:53;;;;;;;3.67;2.10;;;16.80;37.20;;;;;;5045902;28;20443;-44
2021/05/04 07:37:19;;;;;;;2.73;1.90;;;16.60;37.60;;;;;;5050261;28;20184;-44
2021/05/04 07:39:44;;;;;;;2.63;1.87;;;16.50;37.90;;;;;;5044742;28;20197;-44
2021/05/04 07:42:12;;;;;;;3.03;2.07;;;16.70;37.70;;;;;;5049033;28;20553;-46
2021/05/04 07:44:37;;;;;;;2.07;1.97;;;16.80;37.10;;;;;;5048785;28;20300;-43
2021/05/04 07:47:03;;;;;;;2.90;1.70;;;16.60;36.30;;;;;;5044705;28;20435;-46
2021/05/04 07:49:47;;;;;;;2.80;2.23;;;16.70;36.80;;;;;;5048818;28;20283;-44
2021/05/04 07:52:13;;;;;;;5.40;2.40;;;16.80;37.00;;;;;;5044857;28;20228;-44
2021/05/04 07:54:39;;;;;;;2.30;2.10;;;16.90;37.40;;;;;;5045082;28;20433;-44
2021/05/04 07:57:05;;;;;;;2.33;2.13;;;17.00;36.70;;;;;;5033199;28;20420;-44
2021/05/04 07:59:30;;;;;;;4.03;1.80;;;17.10;37.00;;;;;;5031717;28;20497;-44
2021/05/04 08:01:58;;;;;;;2.00;1.90;;;17.20;36.00;;;;;;5033345;28;20522;-44
2021/05/04 08:04:24;;;;;;;2.93;1.93;;;17.30;35.70;;;;;;5033578;28;20206;-43
2021/05/04 08:06:50;;;;;;;2.00;1.60;;;17.20;35.40;;;;;;5033074;28;20766;-44
2021/05/04 08:09:15;;;;;;;2.00;1.90;;;17.30;36.00;;;;;;5033225;28;20200;-44
2021/05/04 08:11:41;;;;;;;5.63;1.93;;;17.40;35.70;;;;;;5038793;28;20730;-44
2021/05/04 08:14:07;;;;;;;6.73;1.87;;;17.30;35.40;;;;;;5049585;28;20205;-43
2021/05/04 08:16:33;;;;;;;5.63;1.80;;;17.40;35.30;;;;;;5032707;28;20551;-43
2021/05/04 08:18:59;;;;;;;3.43;2.07;;;17.30;34.90;;;;;;5033050;28;20438;-44
2021/05/04 08:21:32;;;;;;;3.30;1.80;;;17.40;35.80;;;;;;5033029;28;20439;-46
2021/05/04 08:23:57;;;;;;;1.90;1.73;;;17.00;34.60;;;;;;5032774;28;20935;-45
2021/05/04 08:26:24;;;;;;;1.63;1.53;;;17.00;34.90;;;;;;5048010;28;20473;-45
2021/05/04 08:28:50;;;;;;;6.93;2.10;;;17.20;35.20;;;;;;5035665;28;20298;-44
2021/05/04 08:31:15;;;;;;;1.97;1.87;;;17.20;34.80;;;;;;5033704;28;20427;-44
2021/05/04 08:33:41;;;;;;;2.07;1.83;;;17.20;34.30;;;;;;5036311;28;20196;-43
2021/05/04 08:36:06;;;;;;;2.30;2.10;;;17.40;34.50;;;;;;5051680;28;20650;-45
2021/05/04 08:38:32;;;;;;;2.53;2.33;;;17.50;34.60;;;;;;5034881;28;20197;-44
2021/05/04 08:41:00;;;;;;;3.50;1.87;;;17.50;34.30;;;;;;5033100;28;20190;-45
2021/05/04 08:43:26;;;;;;;4.93;1.93;;;17.50;33.90;;;;;;5031754;28;20196;-45
2021/05/04 08:45:58;;;;;;;5.00;1.97;;;17.70;34.10;;;;;;5040648;28;20441;-44
2021/05/04 08:48:26;;;;;;;1.90;1.80;;;17.90;34.30;;;;;;5047181;28;20520;-45
2021/05/04 08:50:56;;;;;;;3.63;2.40;;;18.00;33.70;;;;;;5032900;28;20428;-44
2021/05/04 08:53:22;;;;;;;2.70;1.90;;;18.20;34.00;;;;;;5029878;28;20479;-44
2021/05/04 08:55:48;;;;;;;6.53;1.60;;;18.30;33.50;;;;;;5039562;28;20445;-44
2021/05/04 08:58:14;;;;;;;1.60;1.50;;;18.30;33.00;;;;;;5049699;28;21298;-44
2021/05/04 09:00:40;;;;;;;2.03;1.73;;;18.30;33.10;;;;;;5051876;28;20446;-44
2021/05/04 09:06:02;;;;;;;2.03;1.93;;;18.80;33.10;;;;;;5048949;28;20436;-44
2021/05/04 09:09:22;;;;;;;2.20;1.97;;;19.20;33.20;;;;;;5041384;28;20499;-44
2021/05/04 09:14:17;;;;;;;3.33;2.17;;;19.40;32.20;;;;;;5046419;28;20448;-44
2021/05/04 09:17:09;;;;;;;2.30;2.10;;;19.20;32.20;;;;;;5044705;28;20454;-44
2021/05/04 09:19:41;;;;;;;2.37;2.00;;;19.00;32.40;;;;;;5046004;28;20435;-44
2021/05/04 09:22:06;;;;;;;3.10;1.93;;;18.70;32.30;;;;;;5043129;28;20493;-44
2021/05/04 09:24:43;;;;;;;11.53;2.60;;;18.70;32.90;;;;;;5050117;28;20420;-46
2021/05/04 09:27:11;;;;;;;2.30;2.10;;;18.90;33.60;;;;;;5044876;28;20279;-44
2021/05/04 09:29:55;;;;;;;1.93;1.83;;;18.90;33.00;;;;;;5049856;28;20809;-45
2021/05/04 09:32:27;;;;;;;3.27;1.90;;;18.80;32.40;;;;;;5044855;28;20955;-45
2021/05/04 09:35:04;;;;;;;2.33;1.80;;;18.60;31.80;;;;;;5047421;28;20442;-48
2021/05/04 09:37:33;;;;;;;2.37;1.77;;;18.40;32.40;;;;;;5048635;28;20495;-44
2021/05/04 09:40:19;;;;;;;3.17;2.10;;;18.30;32.50;;;;;;5044897;28;20449;-45
2021/05/04 09:42:46;;;;;;;2.00;1.90;;;18.40;32.70;;;;;;5044685;28;20478;-44
2021/05/04 09:45:22;;;;;;;3.17;2.10;;;18.60;32.90;;;;;;5039132;28;20961;-44
2021/05/04 09:48:10;;;;;;;3.37;1.90;;;18.80;32.10;;;;;;5046105;28;20795;-45
2021/05/04 09:51:01;;;;;;;5.10;2.53;;;19.10;32.50;;;;;;5049946;28;20446;-45
2021/05/04 09:53:47;;;;;;;3.80;2.30;;;19.30;32.50;;;;;;5044019;28;20989;-45
2021/05/04 09:56:14;;;;;;;1.90;1.80;;;19.30;32.00;;;;;;5050530;28;20518;-45
2021/05/04 09:58:46;;;;;;;3.90;1.60;;;19.20;31.90;;;;;;5050217;28;20492;-45
2021/05/04 10:01:13;;;;;;;2.70;1.90;;;19.00;32.00;;;;;;5050288;28;20473;-45
2021/05/04 10:03:40;;;;;;;4.03;2.03;;;18.90;31.70;;;;;;5047622;28;20597;-45
2021/05/04 10:06:07;;;;;;;2.20;2.00;;;18.90;31.80;;;;;;5044266;28;20458;-45
2021/05/04 10:08:35;;;;;;;2.10;1.70;;;19.30;32.70;;;;;;5050456;28;20439;-45
2021/05/04 10:11:12;;;;;;;2.70;2.30;;;19.40;31.90;;;;;;5049171;28;20457;-44
2021/05/04 10:13:40;;;;;;;4.93;2.13;;;19.60;31.60;;;;;;5050064;28;20462;-44
2021/05/04 10:16:07;;;;;;;5.17;2.30;;;19.40;31.10;;;;;;5048176;28;20536;-45
2021/05/04 10:18:34;;;;;;;2.10;2.00;;;19.50;32.00;;;;;;5045469;28;20432;-44
2021/05/04 10:21:02;;;;;;;5.03;1.73;;;19.70;31.60;;;;;;5048870;28;20439;-44
2021/05/04 10:23:30;;;;;;;7.40;1.93;;;19.70;31.60;;;;;;5046219;28;20445;-48
2021/05/04 10:26:05;;;;;;;2.07;1.80;;;19.90;31.50;;;;;;5048556;28;20946;-45
2021/05/04 10:28:35;;;;;;;1.87;1.77;;;19.90;30.30;;;;;;5046308;28;20521;-45
2021/05/04 10:31:09;;;;;;;2.90;2.47;;;20.00;31.40;;;;;;5041027;28;20435;-45
2021/05/04 10:33:37;;;;;;;2.97;2.00;;;20.00;30.50;;;;;;5047934;28;20454;-45
2021/05/04 10:36:04;;;;;;;2.53;1.80;;;20.20;30.90;;;;;;5050506;28;20467;-44
2021/05/04 10:38:53;;;;;;;3.47;2.30;;;20.10;29.90;;;;;;5049660;28;20434;-46
2021/05/04 10:41:19;;;;;;;2.57;2.37;;;19.70;30.00;;;;;;5043842;28;20954;-45
2021/05/04 10:43:45;;;;;;;3.83;1.90;;;20.00;30.60;;;;;;5047228;28;20446;-46
2021/05/04 10:46:38;;;;;;;3.00;2.70;;;20.00;30.30;;;;;;5050672;28;20443;-46
2021/05/04 10:49:06;;;;;;;2.13;1.90;;;20.10;30.30;;;;;;5039708;28;20946;-45
2021/05/04 10:51:43;;;;;;;2.83;1.90;;;20.10;30.40;;;;;;5048509;28;20478;-47
2021/05/04 10:54:10;;;;;;;2.80;2.10;;;20.00;30.40;;;;;;5048650;28;20947;-46
2021/05/04 10:56:46;;;;;;;2.43;2.23;;;19.70;29.90;;;;;;5039491;28;20439;-45
2021/05/04 10:59:25;;;;;;;2.50;1.93;;;19.90;30.60;;;;;;5043721;28;20537;-47
2021/05/04 11:02:09;;;;;;;4.03;2.50;;;19.60;30.10;;;;;;5049000;28;20438;-47
2021/05/04 11:04:41;;;;;;;4.37;2.10;;;19.90;30.80;;;;;;5050420;28;20454;-45
2021/05/04 11:07:07;;;;;;;3.93;2.40;;;20.00;31.30;;;;;;5039223;28;20943;-46
2021/05/04 11:09:38;;;;;;;3.10;2.90;;;20.00;30.80;;;;;;5045453;28;20480;-48
2021/05/04 11:12:04;;;;;;;1.93;1.70;;;19.90;30.00;;;;;;5047336;28;20580;-45
2021/05/04 11:14:31;;;;;;;2.10;1.53;;;19.90;30.00;;;;;;5045050;28;20461;-47
2021/05/04 11:16:56;;;;;;;1.70;1.60;;;20.00;30.10;;;;;;5046981;28;20435;-45
2021/05/04 11:19:29;;;;;;;2.40;1.93;;;20.00;30.10;;;;;;5052760;28;20969;-45
2021/05/04 11:21:57;;;;;;;2.37;2.07;;;19.90;30.10;;;;;;5039736;28;20197;-45
2021/05/04 11:24:29;;;;;;;7.87;1.80;;;19.70;29.60;;;;;;5053558;28;20462;-46
2021/05/04 11:27:16;;;;;;;2.70;1.83;;;19.30;29.90;;;;;;5049032;28;20436;-50
2021/05/04 11:29:43;;;;;;;5.13;2.30;;;19.30;30.70;;;;;;5046884;28;20493;-46
2021/05/04 11:32:16;;;;;;;2.13;1.93;;;19.60;31.50;;;;;;5052062;28;20493;-45
2021/05/04 11:34:42;;;;;;;1.90;1.80;;;19.80;31.60;;;;;;5051575;28;20466;-46
2021/05/04 11:37:22;;;;;;;2.00;1.80;;;19.90;30.90;;;;;;5050210;28;20443;-45
2021/05/04 11:39:54;;;;;;;2.33;1.73;;;19.90;30.90;;;;;;5043956;28;20436;-46
2021/05/04 11:42:39;;;;;;;3.60;1.90;;;19.90;30.60;;;;;;5052353;28;20488;-46
2021/05/04 11:45:05;;;;;;;2.17;2.00;;;20.00;31.20;;;;;;5050016;28;20439;-48
2021/05/04 11:47:32;;;;;;;4.40;2.17;;;19.90;30.90;;;;;;5051014;28;20504;-45
2021/05/04 11:50:04;;;;;;;4.67;1.90;;;20.00;31.30;;;;;;5051411;28;20276;-45
2021/05/04 11:52:30;;;;;;;4.77;1.80;;;19.90;31.80;;;;;;5045645;28;20487;-46
2021/05/04 11:55:26;;;;;;;3.90;1.70;;;19.60;31.60;;;;;;5048138;28;20933;-48
2021/05/04 11:58:23;;;;;;;1.97;1.87;;;19.90;31.80;;;;;;5039411;28;20255;-45
2021/05/04 12:01:04;;;;;;;2.40;2.20;;;20.10;32.30;;;;;;5052092;28;20435;-45
2021/05/04 12:03:31;;;;;;;2.53;1.90;;;20.20;32.30;;;;;;5050151;28;20825;-46
2021/05/04 12:05:58;;;;;;;3.47;2.43;;;20.50;32.30;;;;;;5049857;28;20506;-45
2021/05/04 12:08:24;;;;;;;4.97;2.37;;;20.30;31.30;;;;;;5052112;28;20934;-46
2021/05/04 12:10:50;;;;;;;3.83;2.40;;;20.10;31.80;;;;;;5045618;28;20804;-45
2021/05/04 12:13:22;;;;;;;2.03;1.93;;;19.90;32.10;;;;;;5048710;28;20493;-46
2021/05/04 12:15:52;;;;;;;2.90;1.90;;;20.30;32.70;;;;;;5051678;28;20436;-45
2021/05/04 12:18:29;;;;;;;4.20;2.23;;;20.30;32.60;;;;;;5049433;28;20435;-45
2021/05/04 12:21:00;;;;;;;5.60;2.20;;;20.10;32.30;;;;;;5042061;28;20438;-46
2021/05/04 12:23:27;;;;;;;4.53;1.83;;;20.00;32.80;;;;;;5043346;28;20448;-45
2021/05/04 12:25:58;;;;;;;2.67;2.00;;;20.10;33.10;;;;;;5038752;28;20451;-43
2021/05/04 12:28:27;;;;;;;2.70;1.70;;;19.80;33.40;;;;;;5047680;28;20957;-44
2021/05/04 12:31:01;;;;;;;5.33;2.07;;;19.80;34.10;;;;;;5044896;28;20423;-48
2021/05/04 12:33:27;;;;;;;2.90;1.70;;;19.60;33.80;;;;;;5047098;28;20490;-44
2021/05/04 12:35:58;;;;;;;4.33;2.27;;;20.00;34.40;;;;;;5047047;28;20947;-46
2021/05/04 12:38:27;;;;;;;1.93;1.83;;;19.80;35.00;;;;;;5039830;28;21122;-43
2021/05/04 12:40:55;;;;;;;2.80;2.00;;;19.70;34.60;;;;;;5049479;28;20435;-43
2021/05/04 12:43:29;;;;;;;2.13;1.93;;;19.40;35.00;;;;;;5046699;28;20455;-43
2021/05/04 12:46:17;;;;;;;2.00;1.90;;;19.20;35.70;;;;;;5045168;28;20471;-46
2021/05/04 12:48:43;;;;;;;1.80;1.60;;;19.50;36.10;;;;;;5046207;28;20443;-44
2021/05/04 12:51:12;;;;;;;6.13;2.20;;;19.60;36.60;;;;;;5050034;28;20438;-45
2021/05/04 12:53:40;;;;;;;2.00;1.83;;;19.80;37.00;;;;;;5045548;28;21020;-43
2021/05/04 12:56:29;;;;;;;5.00;2.30;;;19.80;36.70;;;;;;5050495;28;20442;-44
2021/05/04 12:58:59;;;;;;;1.73;1.63;;;19.60;37.50;;;;;;5037816;28;20436;-45